Terminal Aerodrome Forecast
Issued by NWS King Salmon, AK

Home | Current Version | Previous Version | Text Only | Print | Product List | Glossary On
Versions: 1 2 3 4 5 6 7 8 9 10 11 12 13 14 15 16 17 18 19 20 21 22 23 24
000
FTAK31 PANC 051121
TAFAKN
TAF
PAKN 051121Z 0512/0612 01008KT P6SM FEW110 SCT220
     FM052200 03011KT 6SM -SN BKN025
     FM060100 02010KT 3SM -SN BR BKN015=

USA.gov is the U.S. government's official web portal to all federal, state and local government web resources and services.